createdAt,value
2024-03-31T03:01:04.905Z,7.1
2024-03-31T03:11:07.300Z,7
2024-03-31T03:41:14.474Z,7.1
2024-03-31T03:51:16.452Z,7
2024-03-31T04:01:18.463Z,7.1
2024-03-31T04:11:20.531Z,6.9
2024-03-31T04:21:22.686Z,6.9
2024-03-31T04:31:24.889Z,7
2024-03-31T04:51:29.870Z,7.1
2024-03-31T05:01:32.360Z,7.1
2024-03-31T05:11:33.986Z,7
2024-03-31T05:31:38.780Z,7.2
2024-03-31T05:41:40.627Z,7.3
2024-03-31T06:01:44.463Z,7.4
2024-03-31T06:11:46.547Z,7.4
2024-03-31T06:21:48.818Z,7.7
2024-03-31T06:31:50.553Z,7.8
2024-03-31T06:41:52.508Z,8
2024-03-31T06:51:54.914Z,8.1
2024-03-31T07:01:56.818Z,8.4
2024-03-31T07:11:59.414Z,8.5
2024-03-31T07:22:01.685Z,8.7
2024-03-31T07:42:07.307Z,9.4
2024-03-31T07:52:07.238Z,9.6
2024-03-31T08:02:09.537Z,9.8
2024-03-31T08:12:11.552Z,10.1
2024-03-31T08:22:13.671Z,10.4
2024-03-31T09:12:25.046Z,12.6
2024-03-31T09:22:26.952Z,13.1
2024-03-31T09:32:28.864Z,13.4
2024-03-31T09:42:31.436Z,14
2024-03-31T09:52:33.649Z,14.4
2024-03-31T10:02:35.485Z,14.8
2024-03-31T10:12:37.435Z,15.1
2024-03-31T10:32:42.013Z,15.4
2024-03-31T10:42:43.981Z,15.7
2024-03-31T10:52:46.468Z,15.9
2024-03-31T11:02:48.573Z,15.9
2024-03-31T11:12:50.758Z,16.3
2024-03-31T11:22:52.799Z,16.4
2024-03-31T11:32:54.611Z,16.5
2024-03-31T11:42:56.503Z,16.5
2024-03-31T11:52:58.394Z,16.7
2024-03-31T12:03:00.786Z,16.5
2024-03-31T12:13:02.600Z,16.8
2024-03-31T12:23:04.646Z,16.8
2024-03-31T12:33:06.428Z,16.7
2024-03-31T12:43:08.179Z,16.8
2024-03-31T12:53:10.460Z,17
2024-03-31T13:03:12.822Z,17.3
2024-03-31T13:53:25.388Z,17.2
2024-03-31T14:13:28.069Z,17.4
2024-03-31T14:53:36.258Z,17.8
2024-03-31T15:03:38.349Z,17.8
2024-03-31T16:26:49.204Z,16.6
2024-03-31T16:34:07.286Z,16.5
2024-03-31T16:44:09.099Z,16.3
2024-03-31T16:54:10.795Z,16.2
2024-03-31T17:04:13.301Z,16.1
2024-03-31T17:14:15.809Z,16
2024-03-31T17:24:17.592Z,15.8
2024-03-31T17:34:19.979Z,15.7
2024-03-31T17:44:22.104Z,15.7
2024-03-31T17:54:23.922Z,10
2024-03-31T18:04:26.463Z,10.3
2024-03-31T18:14:28.341Z,10.3
2024-03-31T18:24:30.494Z,10.4
2024-03-31T18:34:32.548Z,10.5
2024-03-31T18:44:34.733Z,10.6
2024-03-31T18:54:36.856Z,10.7
2024-03-31T19:04:38.814Z,10.8
2024-03-31T19:14:41.667Z,10.8
2024-03-31T19:24:42.733Z,10.7
2024-03-31T19:34:45.196Z,11
2024-03-31T19:44:47.739Z,11.1
2024-03-31T19:54:50.088Z,11.3
2024-03-31T20:04:52.309Z,11.4
2024-03-31T20:14:54.230Z,11.3
2024-03-31T20:24:56.219Z,11.1
2024-03-31T20:34:58.729Z,11
2024-03-31T21:15:06.880Z,11.4
2024-03-31T22:55:29.328Z,11.5
